Port Haywood, Virginia
Current Conditions -  °F | °C
As of 3:35 AM on Saturday 29 Nov 2014 (Local Time) from KW75 Reporting Station
Scattered Clouds Scattered Clouds  
Wind Chill: 29°   Ceiling: Unl
Heat Index: 29°   Visibility: 10mi
Dew Point: 26°   Wind: 0mph
Humidity: 88%   Direction: NA
Pressure: 30.31"   Gusts: NA
Location:  37.39°N, 76.32°W
Report Text: KW75 290835Z AUTO 00000KT 10SM SCT120 M02/M03 A3031 RMK AO1 T10181035
Loading
Personal Weather Stations






























Interactive Weather Map New forecast layout! Learn more

10-Day Weather Forecast

Advertisements
Track Severe Weather on mobile